sensor_id;sensor_type;location;lat;lon;timestamp;pressure;altitude;pressure_sealevel;temperature;humidity
77855;BME280;67046;50.088;14.336;2023-04-15T00:00:14;96139.78;;;7.70;83.61
77855;BME280;67046;50.088;14.336;2023-04-15T00:01:06;96139.36;;;7.68;83.21
77855;BME280;67046;50.088;14.336;2023-04-15T00:01:38;96136.92;;;7.67;83.56
77855;BME280;67046;50.088;14.336;2023-04-15T00:02:17;96137.98;;;7.66;83.67
77855;BME280;67046;50.088;14.336;2023-04-15T00:02:50;96137.67;;;7.67;83.67
77855;BME280;67046;50.088;14.336;2023-04-15T00:03:22;96138.23;;;7.68;83.42
77855;BME280;67046;50.088;14.336;2023-04-15T00:03:54;96138.25;;;7.68;83.33
77855;BME280;67046;50.088;14.336;2023-04-15T00:04:26;96137.79;;;7.68;83.76
77855;BME280;67046;50.088;14.336;2023-04-15T00:04:58;96138.24;;;7.67;83.48
77855;BME280;67046;50.088;14.336;2023-04-15T00:05:30;96141.55;;;7.65;83.72
77855;BME280;67046;50.088;14.336;2023-04-15T00:06:03;96140.35;;;7.66;84.08
77855;BME280;67046;50.088;14.336;2023-04-15T00:06:36;96137.93;;;7.67;83.43
77855;BME280;67046;50.088;14.336;2023-04-15T00:07:08;96140.51;;;7.68;83.60
77855;BME280;67046;50.088;14.336;2023-04-15T00:07:40;96138.25;;;7.68;83.64
77855;BME280;67046;50.088;14.336;2023-04-15T00:08:12;96137.09;;;7.67;83.49
77855;BME280;67046;50.088;14.336;2023-04-15T00:08:45;96134.35;;;7.67;83.54
77855;BME280;67046;50.088;14.336;2023-04-15T00:09:17;96132.77;;;7.68;83.92
77855;BME280;67046;50.088;14.336;2023-04-15T00:09:50;96132.94;;;7.68;83.65
77855;BME280;67046;50.088;14.336;2023-04-15T00:10:26;96136.10;;;7.69;83.80
77855;BME280;67046;50.088;14.336;2023-04-15T00:10:58;96135.52;;;7.69;83.83
77855;BME280;67046;50.088;14.336;2023-04-15T00:11:36;96134.52;;;7.70;83.52
77855;BME280;67046;50.088;14.336;2023-04-15T00:12:08;96135.27;;;7.70;83.63
77855;BME280;67046;50.088;14.336;2023-04-15T00:12:40;96136.73;;;7.70;83.86
77855;BME280;67046;50.088;14.336;2023-04-15T00:13:12;96139.69;;;7.70;83.68
77855;BME280;67046;50.088;14.336;2023-04-15T00:13:45;96138.86;;;7.71;83.55
77855;BME280;67046;50.088;14.336;2023-04-15T00:14:17;96136.17;;;7.70;83.66
77855;BME280;67046;50.088;14.336;2023-04-15T00:14:49;96137.31;;;7.70;83.58
77855;BME280;67046;50.088;14.336;2023-04-15T00:15:21;96131.74;;;7.70;83.24
77855;BME280;67046;50.088;14.336;2023-04-15T00:15:53;96132.30;;;7.69;83.36
77855;BME280;67046;50.088;14.336;2023-04-15T00:16:25;96131.15;;;7.68;83.53
77855;BME280;67046;50.088;14.336;2023-04-15T00:16:57;96130.79;;;7.68;83.42
77855;BME280;67046;50.088;14.336;2023-04-15T00:17:29;96131.63;;;7.68;83.44
77855;BME280;67046;50.088;14.336;2023-04-15T00:18:01;96132.95;;;7.70;83.58
77855;BME280;67046;50.088;14.336;2023-04-15T00:18:34;96131.48;;;7.70;83.66
77855;BME280;67046;50.088;14.336;2023-04-15T00:19:06;96127.13;;;7.71;83.48
77855;BME280;67046;50.088;14.336;2023-04-15T00:19:38;96125.60;;;7.72;83.55
77855;BME280;67046;50.088;14.336;2023-04-15T00:20:11;96130.83;;;7.72;83.37
77855;BME280;67046;50.088;14.336;2023-04-15T00:20:43;96128.41;;;7.74;83.38
77855;BME280;67046;50.088;14.336;2023-04-15T00:21:15;96128.94;;;7.75;83.63
77855;BME280;67046;50.088;14.336;2023-04-15T00:21:47;96128.15;;;7.75;83.63
77855;BME280;67046;50.088;14.336;2023-04-15T00:22:19;96129.99;;;7.76;83.71
77855;BME280;67046;50.088;14.336;2023-04-15T00:22:52;96125.90;;;7.76;83.48
77855;BME280;67046;50.088;14.336;2023-04-15T00:23:24;96127.21;;;7.77;83.25
77855;BME280;67046;50.088;14.336;2023-04-15T00:23:56;96122.69;;;7.78;83.27
77855;BME280;67046;50.088;14.336;2023-04-15T00:24:28;96124.08;;;7.77;83.26
77855;BME280;67046;50.088;14.336;2023-04-15T00:25:02;96123.27;;;7.76;83.11
77855;BME280;67046;50.088;14.336;2023-04-15T00:25:34;96121.27;;;7.76;83.52
77855;BME280;67046;50.088;14.336;2023-04-15T00:26:06;96123.95;;;7.76;83.36
77855;BME280;67046;50.088;14.336;2023-04-15T00:26:38;96121.31;;;7.74;83.51
77855;BME280;67046;50.088;14.336;2023-04-15T00:27:10;96118.41;;;7.74;83.52
77855;BME280;67046;50.088;14.336;2023-04-15T00:27:42;96118.74;;;7.70;83.24
77855;BME280;67046;50.088;14.336;2023-04-15T00:28:14;96120.58;;;7.68;83.69
77855;BME280;67046;50.088;14.336;2023-04-15T00:28:46;96119.36;;;7.67;83.30
77855;BME280;67046;50.088;14.336;2023-04-15T00:29:18;96122.97;;;7.65;83.44
77855;BME280;67046;50.088;14.336;2023-04-15T00:29:50;96122.71;;;7.63;83.57
77855;BME280;67046;50.088;14.336;2023-04-15T00:30:23;96120.34;;;7.61;83.88
77855;BME280;67046;50.088;14.336;2023-04-15T00:30:56;96121.21;;;7.59;83.89
77855;BME280;67046;50.088;14.336;2023-04-15T00:31:29;96122.84;;;7.59;83.65
77855;BME280;67046;50.088;14.336;2023-04-15T00:32:01;96122.88;;;7.58;83.45
77855;BME280;67046;50.088;14.336;2023-04-15T00:32:33;96119.48;;;7.59;83.68
77855;BME280;67046;50.088;14.336;2023-04-15T00:33:05;96121.52;;;7.60;83.71
77855;BME280;67046;50.088;14.336;2023-04-15T00:33:37;96120.31;;;7.62;83.52
77855;BME280;67046;50.088;14.336;2023-04-15T00:34:09;96125.70;;;7.62;83.52
77855;BME280;67046;50.088;14.336;2023-04-15T00:34:41;96124.48;;;7.62;83.71
77855;BME280;67046;50.088;14.336;2023-04-15T00:35:13;96120.79;;;7.62;83.61
77855;BME280;67046;50.088;14.336;2023-04-15T00:35:45;96118.34;;;7.62;83.79
77855;BME280;67046;50.088;14.336;2023-04-15T00:36:17;96120.39;;;7.62;83.68
77855;BME280;67046;50.088;14.336;2023-04-15T00:36:49;96125.33;;;7.62;83.55
77855;BME280;67046;50.088;14.336;2023-04-15T00:37:22;96120.36;;;7.61;83.75
77855;BME280;67046;50.088;14.336;2023-04-15T00:37:54;96121.16;;;7.62;83.51
77855;BME280;67046;50.088;14.336;2023-04-15T00:38:26;96119.06;;;7.62;83.41
77855;BME280;67046;50.088;14.336;2023-04-15T00:38:58;96122.38;;;7.62;83.57
77855;BME280;67046;50.088;14.336;2023-04-15T00:39:30;96127.48;;;7.59;83.74
77855;BME280;67046;50.088;14.336;2023-04-15T00:40:02;96125.35;;;7.58;83.83
77855;BME280;67046;50.088;14.336;2023-04-15T00:40:37;96124.30;;;7.58;83.77
77855;BME280;67046;50.088;14.336;2023-04-15T00:41:09;96119.95;;;7.59;83.63
77855;BME280;67046;50.088;14.336;2023-04-15T00:41:42;96122.16;;;7.60;83.60
77855;BME280;67046;50.088;14.336;2023-04-15T00:42:15;96121.85;;;7.60;83.65
77855;BME280;67046;50.088;14.336;2023-04-15T00:42:47;96120.27;;;7.59;83.55
77855;BME280;67046;50.088;14.336;2023-04-15T00:43:19;96120.48;;;7.60;83.55
77855;BME280;67046;50.088;14.336;2023-04-15T00:43:51;96120.27;;;7.61;83.80
77855;BME280;67046;50.088;14.336;2023-04-15T00:44:23;96113.06;;;7.61;83.54
77855;BME280;67046;50.088;14.336;2023-04-15T00:44:55;96115.44;;;7.60;83.72
77855;BME280;67046;50.088;14.336;2023-04-15T00:45:28;96111.75;;;7.60;83.77
77855;BME280;67046;50.088;14.336;2023-04-15T00:46:01;96112.02;;;7.61;83.58
77855;BME280;67046;50.088;14.336;2023-04-15T00:46:36;96108.59;;;7.61;83.70
77855;BME280;67046;50.088;14.336;2023-04-15T00:47:11;96104.50;;;7.62;83.64
77855;BME280;67046;50.088;14.336;2023-04-15T00:47:43;96101.70;;;7.62;83.63
77855;BME280;67046;50.088;14.336;2023-04-15T00:48:16;96105.70;;;7.62;83.68
77855;BME280;67046;50.088;14.336;2023-04-15T00:48:49;96109.14;;;7.62;83.68
77855;BME280;67046;50.088;14.336;2023-04-15T00:49:22;96107.52;;;7.63;83.81
77855;BME280;67046;50.088;14.336;2023-04-15T00:49:54;96108.35;;;7.63;83.77
77855;BME280;67046;50.088;14.336;2023-04-15T00:50:27;96108.09;;;7.64;83.66
77855;BME280;67046;50.088;14.336;2023-04-15T00:50:59;96107.27;;;7.65;83.73
77855;BME280;67046;50.088;14.336;2023-04-15T00:51:31;96104.02;;;7.66;83.63
77855;BME280;67046;50.088;14.336;2023-04-15T00:52:04;96104.63;;;7.64;83.71
77855;BME280;67046;50.088;14.336;2023-04-15T00:52:36;96102.98;;;7.63;83.60
77855;BME280;67046;50.088;14.336;2023-04-15T00:53:08;96104.41;;;7.63;83.65
77855;BME280;67046;50.088;14.336;2023-04-15T00:53:40;96105.79;;;7.63;83.75
77855;BME280;67046;50.088;14.336;2023-04-15T00:54:12;96103.20;;;7.63;83.32
77855;BME280;67046;50.088;14.336;2023-04-15T00:54:44;96101.67;;;7.63;83.39
77855;BME280;67046;50.088;14.336;2023-04-15T00:55:16;96096.41;;;7.63;83.63
77855;BME280;67046;50.088;14.336;2023-04-15T00:55:49;96098.94;;;7.63;83.68
77855;BME280;67046;50.088;14.336;2023-04-15T00:56:21;96095.30;;;7.62;83.71
77855;BME280;67046;50.088;14.336;2023-04-15T00:56:55;96099.27;;;7.58;83.62
77855;BME280;67046;50.088;14.336;2023-04-15T00:57:27;96097.15;;;7.56;83.44
77855;BME280;67046;50.088;14.336;2023-04-15T00:57:59;96095.89;;;7.56;83.52
77855;BME280;67046;50.088;14.336;2023-04-15T00:58:31;96096.36;;;7.55;83.65
77855;BME280;67046;50.088;14.336;2023-04-15T00:59:04;96094.13;;;7.52;83.32
77855;BME280;67046;50.088;14.336;2023-04-15T00:59:37;96100.38;;;7.51;83.59
77855;BME280;67046;50.088;14.336;2023-04-15T01:00:10;96095.42;;;7.50;83.81
77855;BME280;67046;50.088;14.336;2023-04-15T01:00:42;96096.05;;;7.49;83.67
77855;BME280;67046;50.088;14.336;2023-04-15T01:01:14;96099.52;;;7.49;83.68
77855;BME280;67046;50.088;14.336;2023-04-15T01:01:46;96097.95;;;7.49;83.79
77855;BME280;67046;50.088;14.336;2023-04-15T01:02:19;96098.41;;;7.48;83.91
77855;BME280;67046;50.088;14.336;2023-04-15T01:02:51;96096.81;;;7.47;83.71
77855;BME280;67046;50.088;14.336;2023-04-15T01:03:23;96096.30;;;7.47;83.73
77855;BME280;67046;50.088;14.336;2023-04-15T01:03:56;96095.92;;;7.47;83.61
77855;BME280;67046;50.088;14.336;2023-04-15T01:04:31;96096.77;;;7.45;83.73
77855;BME280;67046;50.088;14.336;2023-04-15T01:05:03;96095.38;;;7.44;83.93
77855;BME280;67046;50.088;14.336;2023-04-15T01:05:35;96096.65;;;7.43;83.91
77855;BME280;67046;50.088;14.336;2023-04-15T01:06:07;96094.86;;;7.43;83.80
77855;BME280;67046;50.088;14.336;2023-04-15T01:06:40;96093.23;;;7.42;83.72
77855;BME280;67046;50.088;14.336;2023-04-15T01:07:12;96099.27;;;7.43;84.00
77855;BME280;67046;50.088;14.336;2023-04-15T01:07:44;96093.89;;;7.42;84.12
77855;BME280;67046;50.088;14.336;2023-04-15T01:08:16;96096.85;;;7.42;83.77
77855;BME280;67046;50.088;14.336;2023-04-15T01:08:48;96092.02;;;7.42;83.82
77855;BME280;67046;50.088;14.336;2023-04-15T01:09:20;96094.00;;;7.42;83.96
77855;BME280;67046;50.088;14.336;2023-04-15T01:09:52;96099.10;;;7.42;83.83
77855;BME280;67046;50.088;14.336;2023-04-15T01:10:24;96091.85;;;7.41;83.68
77855;BME280;67046;50.088;14.336;2023-04-15T01:10:57;96095.59;;;7.41;83.96
77855;BME280;67046;50.088;14.336;2023-04-15T01:11:32;96100.11;;;7.41;84.00
77855;BME280;67046;50.088;14.336;2023-04-15T01:12:07;96095.31;;;7.41;83.98
77855;BME280;67046;50.088;14.336;2023-04-15T01:12:41;96097.52;;;7.41;83.85
77855;BME280;67046;50.088;14.336;2023-04-15T01:13:13;96097.31;;;7.42;84.27
77855;BME280;67046;50.088;14.336;2023-04-15T01:13:45;96093.20;;;7.41;83.95
77855;BME280;67046;50.088;14.336;2023-04-15T01:14:18;96101.21;;;7.43;83.99
77855;BME280;67046;50.088;14.336;2023-04-15T01:14:50;96098.46;;;7.42;84.08
77855;BME280;67046;50.088;14.336;2023-04-15T01:15:23;96098.83;;;7.40;83.92
77855;BME280;67046;50.088;14.336;2023-04-15T01:15:55;96097.71;;;7.39;84.20
77855;BME280;67046;50.088;14.336;2023-04-15T01:16:28;96096.45;;;7.39;83.78
77855;BME280;67046;50.088;14.336;2023-04-15T01:17:00;96100.48;;;7.41;84.13
77855;BME280;67046;50.088;14.336;2023-04-15T01:17:32;96097.36;;;7.41;84.00
77855;BME280;67046;50.088;14.336;2023-04-15T01:18:05;96094.70;;;7.43;83.88
77855;BME280;67046;50.088;14.336;2023-04-15T01:18:38;96093.92;;;7.43;84.01
77855;BME280;67046;50.088;14.336;2023-04-15T01:19:11;96097.06;;;7.43;83.72
77855;BME280;67046;50.088;14.336;2023-04-15T01:19:45;96099.02;;;7.44;83.77
77855;BME280;67046;50.088;14.336;2023-04-15T01:20:17;96096.96;;;7.45;83.92
77855;BME280;67046;50.088;14.336;2023-04-15T01:20:49;96095.34;;;7.45;84.11
77855;BME280;67046;50.088;14.336;2023-04-15T01:21:22;96099.09;;;7.46;83.99
77855;BME280;67046;50.088;14.336;2023-04-15T01:21:54;96096.81;;;7.46;84.02
77855;BME280;67046;50.088;14.336;2023-04-15T01:22:27;96095.98;;;7.45;84.12
77855;BME280;67046;50.088;14.336;2023-04-15T01:22:59;96094.52;;;7.46;83.88
77855;BME280;67046;50.088;14.336;2023-04-15T01:23:34;96096.67;;;7.46;84.15
77855;BME280;67046;50.088;14.336;2023-04-15T01:24:09;96095.40;;;7.47;83.91
77855;BME280;67046;50.088;14.336;2023-04-15T01:24:50;96090.98;;;7.46;84.18
77855;BME280;67046;50.088;14.336;2023-04-15T01:25:32;96088.36;;;7.45;84.06
77855;BME280;67046;50.088;14.336;2023-04-15T01:26:06;96091.70;;;7.44;84.12
77855;BME280;67046;50.088;14.336;2023-04-15T01:26:41;96092.12;;;7.42;84.33
77855;BME280;67046;50.088;14.336;2023-04-15T01:27:13;96086.33;;;7.41;84.17
77855;BME280;67046;50.088;14.336;2023-04-15T01:27:45;96089.85;;;7.41;83.95
77855;BME280;67046;50.088;14.336;2023-04-15T01:28:18;96088.70;;;7.41;84.29
77855;BME280;67046;50.088;14.336;2023-04-15T01:28:50;96089.91;;;7.42;84.10
77855;BME280;67046;50.088;14.336;2023-04-15T01:29:22;96080.08;;;7.42;84.29
77855;BME280;67046;50.088;14.336;2023-04-15T01:29:54;96084.39;;;7.42;84.35
77855;BME280;67046;50.088;14.336;2023-04-15T01:30:27;96083.88;;;7.43;84.01
77855;BME280;67046;50.088;14.336;2023-04-15T01:31:25;96079.49;;;7.41;84.20
77855;BME280;67046;50.088;14.336;2023-04-15T01:31:57;96080.43;;;7.40;84.20
77855;BME280;67046;50.088;14.336;2023-04-15T01:32:29;96079.59;;;7.40;84.48
77855;BME280;67046;50.088;14.336;2023-04-15T01:33:01;96079.18;;;7.40;84.53
77855;BME280;67046;50.088;14.336;2023-04-15T01:33:33;96080.44;;;7.41;84.03
77855;BME280;67046;50.088;14.336;2023-04-15T01:34:06;96080.96;;;7.42;84.14
77855;BME280;67046;50.088;14.336;2023-04-15T01:34:38;96082.40;;;7.43;84.16
77855;BME280;67046;50.088;14.336;2023-04-15T01:35:10;96077.57;;;7.43;84.07
77855;BME280;67046;50.088;14.336;2023-04-15T01:35:42;96076.52;;;7.44;84.25
77855;BME280;67046;50.088;14.336;2023-04-15T01:36:15;96078.10;;;7.45;84.19
77855;BME280;67046;50.088;14.336;2023-04-15T01:36:47;96079.48;;;7.45;84.14
77855;BME280;67046;50.088;14.336;2023-04-15T01:37:19;96083.27;;;7.46;84.14
77855;BME280;67046;50.088;14.336;2023-04-15T01:37:52;96082.10;;;7.47;84.30
77855;BME280;67046;50.088;14.336;2023-04-15T01:38:26;96084.33;;;7.48;84.26
77855;BME280;67046;50.088;14.336;2023-04-15T01:38:58;96079.69;;;7.47;84.26
77855;BME280;67046;50.088;14.336;2023-04-15T01:39:30;96082.75;;;7.48;84.17
77855;BME280;67046;50.088;14.336;2023-04-15T01:40:03;96082.91;;;7.48;84.09
77855;BME280;67046;50.088;14.336;2023-04-15T01:40:35;96081.54;;;7.48;84.29
77855;BME280;67046;50.088;14.336;2023-04-15T01:41:07;96083.42;;;7.46;84.15
77855;BME280;67046;50.088;14.336;2023-04-15T01:41:39;96085.41;;;7.46;84.03
77855;BME280;67046;50.088;14.336;2023-04-15T01:42:13;96088.81;;;7.44;84.19
77855;BME280;67046;50.088;14.336;2023-04-15T01:42:45;96087.08;;;7.44;84.17
77855;BME280;67046;50.088;14.336;2023-04-15T01:43:17;96087.62;;;7.45;84.55
77855;BME280;67046;50.088;14.336;2023-04-15T01:43:49;96087.41;;;7.45;84.20
77855;BME280;67046;50.088;14.336;2023-04-15T01:44:21;96086.79;;;7.46;84.11
77855;BME280;67046;50.088;14.336;2023-04-15T01:44:53;96087.98;;;7.47;84.22
77855;BME280;67046;50.088;14.336;2023-04-15T01:45:25;96090.42;;;7.48;84.13
77855;BME280;67046;50.088;14.336;2023-04-15T01:45:57;96084.76;;;7.49;84.40
77855;BME280;67046;50.088;14.336;2023-04-15T01:46:29;96087.73;;;7.49;84.15
77855;BME280;67046;50.088;14.336;2023-04-15T01:47:01;96086.91;;;7.51;84.20
77855;BME280;67046;50.088;14.336;2023-04-15T01:47:33;96085.04;;;7.52;84.12
77855;BME280;67046;50.088;14.336;2023-04-15T01:48:05;96090.94;;;7.54;84.19
77855;BME280;67046;50.088;14.336;2023-04-15T01:48:37;96088.63;;;7.55;84.32
77855;BME280;67046;50.088;14.336;2023-04-15T01:49:09;96087.85;;;7.56;84.19
77855;BME280;67046;50.088;14.336;2023-04-15T01:49:41;96092.70;;;7.58;84.04
77855;BME280;67046;50.088;14.336;2023-04-15T01:50:13;96090.23;;;7.59;84.36
77855;BME280;67046;50.088;14.336;2023-04-15T01:50:46;96094.55;;;7.59;84.06
77855;BME280;67046;50.088;14.336;2023-04-15T01:51:18;96097.09;;;7.60;84.01
77855;BME280;67046;50.088;14.336;2023-04-15T01:51:51;96096.30;;;7.60;84.17
77855;BME280;67046;50.088;14.336;2023-04-15T01:52:23;96097.04;;;7.60;84.03
77855;BME280;67046;50.088;14.336;2023-04-15T01:52:55;96100.88;;;7.60;84.13
77855;BME280;67046;50.088;14.336;2023-04-15T01:53:27;96098.77;;;7.61;84.12
77855;BME280;67046;50.088;14.336;2023-04-15T01:54:00;96103.86;;;7.60;84.20
77855;BME280;67046;50.088;14.336;2023-04-15T01:54:32;96100.40;;;7.60;84.15
77855;BME280;67046;50.088;14.336;2023-04-15T01:55:04;96103.65;;;7.60;84.08
77855;BME280;67046;50.088;14.336;2023-04-15T01:55:36;96103.29;;;7.61;84.09
77855;BME280;67046;50.088;14.336;2023-04-15T01:56:08;96103.23;;;7.60;84.43
77855;BME280;67046;50.088;14.336;2023-04-15T01:56:41;96103.44;;;7.59;84.11
77855;BME280;67046;50.088;14.336;2023-04-15T01:57:12;96104.90;;;7.59;83.94
77855;BME280;67046;50.088;14.336;2023-04-15T01:57:44;96101.38;;;7.58;83.91
77855;BME280;67046;50.088;14.336;2023-04-15T01:58:17;96104.79;;;7.58;84.07
77855;BME280;67046;50.088;14.336;2023-04-15T01:58:50;96100.27;;;7.57;84.09
77855;BME280;67046;50.088;14.336;2023-04-15T01:59:22;96098.58;;;7.57;83.80
77855;BME280;67046;50.088;14.336;2023-04-15T01:59:54;96100.00;;;7.57;83.94
77855;BME280;67046;50.088;14.336;2023-04-15T02:00:26;96098.48;;;7.57;84.04
77855;BME280;67046;50.088;14.336;2023-04-15T02:00:59;96097.64;;;7.59;84.10
77855;BME280;67046;50.088;14.336;2023-04-15T02:01:31;96100.23;;;7.59;84.08
77855;BME280;67046;50.088;14.336;2023-04-15T02:02:03;96094.91;;;7.58;84.21
77855;BME280;67046;50.088;14.336;2023-04-15T02:02:36;96101.48;;;7.59;83.82
77855;BME280;67046;50.088;14.336;2023-04-15T02:03:08;96097.42;;;7.59;83.88
77855;BME280;67046;50.088;14.336;2023-04-15T02:03:40;96102.39;;;7.60;83.84
77855;BME280;67046;50.088;14.336;2023-04-15T02:04:12;96100.81;;;7.61;83.97
77855;BME280;67046;50.088;14.336;2023-04-15T02:04:47;96104.09;;;7.62;84.21
77855;BME280;67046;50.088;14.336;2023-04-15T02:05:19;96106.94;;;7.63;83.90
77855;BME280;67046;50.088;14.336;2023-04-15T02:05:51;96105.88;;;7.62;84.21
77855;BME280;67046;50.088;14.336;2023-04-15T02:06:23;96106.08;;;7.62;84.04
77855;BME280;67046;50.088;14.336;2023-04-15T02:06:55;96103.61;;;7.62;84.25
77855;BME280;67046;50.088;14.336;2023-04-15T02:07:27;96106.77;;;7.62;83.76
77855;BME280;67046;50.088;14.336;2023-04-15T02:08:02;96104.37;;;7.58;83.67
77855;BME280;67046;50.088;14.336;2023-04-15T02:08:34;96108.95;;;7.57;83.87
77855;BME280;67046;50.088;14.336;2023-04-15T02:09:06;96107.48;;;7.58;83.91
77855;BME280;67046;50.088;14.336;2023-04-15T02:09:38;96106.16;;;7.58;83.94
77855;BME280;67046;50.088;14.336;2023-04-15T02:10:10;96107.89;;;7.58;83.93
77855;BME280;67046;50.088;14.336;2023-04-15T02:10:47;96112.33;;;7.60;83.99
77855;BME280;67046;50.088;14.336;2023-04-15T02:11:19;96109.70;;;7.61;84.33
77855;BME280;67046;50.088;14.336;2023-04-15T02:11:51;96112.65;;;7.61;84.03
77855;BME280;67046;50.088;14.336;2023-04-15T02:12:24;96115.13;;;7.61;83.85
77855;BME280;67046;50.088;14.336;2023-04-15T02:12:57;96114.70;;;7.61;83.77
77855;BME280;67046;50.088;14.336;2023-04-15T02:13:29;96112.91;;;7.62;84.00
77855;BME280;67046;50.088;14.336;2023-04-15T02:14:02;96114.38;;;7.60;83.95
77855;BME280;67046;50.088;14.336;2023-04-15T02:14:36;96115.73;;;7.59;83.96
77855;BME280;67046;50.088;14.336;2023-04-15T02:15:08;96117.75;;;7.60;84.17
77855;BME280;67046;50.088;14.336;2023-04-15T02:15:46;96117.64;;;7.61;84.30
77855;BME280;67046;50.088;14.336;2023-04-15T02:16:18;96122.65;;;7.62;84.19
77855;BME280;67046;50.088;14.336;2023-04-15T02:16:50;96121.08;;;7.62;84.11
77855;BME280;67046;50.088;14.336;2023-04-15T02:17:22;96121.77;;;7.62;83.92
77855;BME280;67046;50.088;14.336;2023-04-15T02:17:54;96122.14;;;7.63;83.94
77855;BME280;67046;50.088;14.336;2023-04-15T02:18:26;96118.77;;;7.63;83.95
77855;BME280;67046;50.088;14.336;2023-04-15T02:18:59;96124.59;;;7.64;83.96
77855;BME280;67046;50.088;14.336;2023-04-15T02:19:32;96123.66;;;7.65;83.79
77855;BME280;67046;50.088;14.336;2023-04-15T02:20:04;96123.84;;;7.66;84.18
77855;BME280;67046;50.088;14.336;2023-04-15T02:20:37;96123.41;;;7.65;83.90
77855;BME280;67046;50.088;14.336;2023-04-15T02:21:10;96122.35;;;7.65;83.84
77855;BME280;67046;50.088;14.336;2023-04-15T02:21:42;96117.77;;;7.65;84.01
77855;BME280;67046;50.088;14.336;2023-04-15T02:22:14;96121.88;;;7.66;84.04
77855;BME280;67046;50.088;14.336;2023-04-15T02:22:49;96121.32;;;7.66;83.94
77855;BME280;67046;50.088;14.336;2023-04-15T02:23:21;96116.16;;;7.66;83.71
77855;BME280;67046;50.088;14.336;2023-04-15T02:23:53;96122.09;;;7.64;83.79
77855;BME280;67046;50.088;14.336;2023-04-15T02:24:25;96121.87;;;7.64;83.96
77855;BME280;67046;50.088;14.336;2023-04-15T02:24:57;96124.12;;;7.64;83.83
77855;BME280;67046;50.088;14.336;2023-04-15T02:25:29;96126.04;;;7.65;83.92
77855;BME280;67046;50.088;14.336;2023-04-15T02:26:01;96120.83;;;7.66;83.85
77855;BME280;67046;50.088;14.336;2023-04-15T02:26:33;96119.15;;;7.66;83.89
77855;BME280;67046;50.088;14.336;2023-04-15T02:27:05;96117.58;;;7.66;83.69
77855;BME280;67046;50.088;14.336;2023-04-15T02:27:37;96114.67;;;7.67;83.86
77855;BME280;67046;50.088;14.336;2023-04-15T02:28:08;96118.36;;;7.67;83.91
77855;BME280;67046;50.088;14.336;2023-04-15T02:28:41;96122.15;;;7.67;83.98
77855;BME280;67046;50.088;14.336;2023-04-15T02:29:13;96116.57;;;7.65;83.65
77855;BME280;67046;50.088;14.336;2023-04-15T02:29:45;96118.71;;;7.65;83.89
77855;BME280;67046;50.088;14.336;2023-04-15T02:30:17;96120.83;;;7.65;83.88
77855;BME280;67046;50.088;14.336;2023-04-15T02:30:49;96123.64;;;7.66;83.69
77855;BME280;67046;50.088;14.336;2023-04-15T02:31:23;96121.58;;;7.66;84.06
77855;BME280;67046;50.088;14.336;2023-04-15T02:31:55;96123.25;;;7.67;83.72
77855;BME280;67046;50.088;14.336;2023-04-15T02:32:27;96124.95;;;7.68;83.93
77855;BME280;67046;50.088;14.336;2023-04-15T02:33:00;96124.22;;;7.69;83.85
77855;BME280;67046;50.088;14.336;2023-04-15T02:33:32;96124.85;;;7.70;83.52
77855;BME280;67046;50.088;14.336;2023-04-15T02:34:04;96121.65;;;7.70;83.54
77855;BME280;67046;50.088;14.336;2023-04-15T02:34:38;96124.34;;;7.71;83.92
77855;BME280;67046;50.088;14.336;2023-04-15T02:35:12;96120.71;;;7.72;83.77
77855;BME280;67046;50.088;14.336;2023-04-15T02:35:44;96120.56;;;7.73;83.95
77855;BME280;67046;50.088;14.336;2023-04-15T02:36:16;96119.93;;;7.73;83.98
77855;BME280;67046;50.088;14.336;2023-04-15T02:36:48;96120.32;;;7.74;83.95
77855;BME280;67046;50.088;14.336;2023-04-15T02:37:20;96119.89;;;7.74;83.63
77855;BME280;67046;50.088;14.336;2023-04-15T02:37:52;96119.52;;;7.75;83.68
77855;BME280;67046;50.088;14.336;2023-04-15T02:38:24;96121.73;;;7.75;83.75
77855;BME280;67046;50.088;14.336;2023-04-15T02:38:56;96122.58;;;7.75;83.69
77855;BME280;67046;50.088;14.336;2023-04-15T02:39:28;96119.32;;;7.76;83.67
77855;BME280;67046;50.088;14.336;2023-04-15T02:40:00;96123.44;;;7.77;83.59
77855;BME280;67046;50.088;14.336;2023-04-15T02:40:32;96122.08;;;7.77;83.55
77855;BME280;67046;50.088;14.336;2023-04-15T02:41:04;96122.54;;;7.78;83.57
77855;BME280;67046;50.088;14.336;2023-04-15T02:41:36;96121.90;;;7.78;83.68
77855;BME280;67046;50.088;14.336;2023-04-15T02:42:08;96120.27;;;7.78;83.59
77855;BME280;67046;50.088;14.336;2023-04-15T02:42:40;96122.81;;;7.79;83.48
77855;BME280;67046;50.088;14.336;2023-04-15T02:43:13;96122.44;;;7.79;83.45
77855;BME280;67046;50.088;14.336;2023-04-15T02:43:45;96123.23;;;7.80;83.39
77855;BME280;67046;50.088;14.336;2023-04-15T02:44:17;96121.86;;;7.78;83.49
77855;BME280;67046;50.088;14.336;2023-04-15T02:44:50;96122.70;;;7.78;83.69
77855;BME280;67046;50.088;14.336;2023-04-15T02:45:22;96123.13;;;7.79;83.61
77855;BME280;67046;50.088;14.336;2023-04-15T02:45:58;96128.35;;;7.79;83.75
77855;BME280;67046;50.088;14.336;2023-04-15T02:46:30;96128.35;;;7.80;83.65
77855;BME280;67046;50.088;14.336;2023-04-15T02:47:02;96129.56;;;7.82;83.58
77855;BME280;67046;50.088;14.336;2023-04-15T02:47:35;96126.52;;;7.82;83.69
77855;BME280;67046;50.088;14.336;2023-04-15T02:48:09;96126.31;;;7.82;83.48
77855;BME280;67046;50.088;14.336;2023-04-15T02:48:41;96126.14;;;7.82;83.42
77855;BME280;67046;50.088;14.336;2023-04-15T02:49:13;96127.31;;;7.82;83.46
77855;BME280;67046;50.088;14.336;2023-04-15T02:49:46;96126.73;;;7.83;83.52
77855;BME280;67046;50.088;14.336;2023-04-15T02:50:18;96125.41;;;7.82;83.39
77855;BME280;67046;50.088;14.336;2023-04-15T02:50:50;96125.89;;;7.83;83.45
77855;BME280;67046;50.088;14.336;2023-04-15T02:51:22;96128.19;;;7.80;83.51
77855;BME280;67046;50.088;14.336;2023-04-15T02:51:54;96124.09;;;7.80;83.51
77855;BME280;67046;50.088;14.336;2023-04-15T02:52:26;96127.34;;;7.80;83.42
77855;BME280;67046;50.088;14.336;2023-04-15T02:52:59;96124.96;;;7.79;83.57